createdAt,value
2023-02-27T00:02:00.181Z,0.61
2023-02-27T00:04:26.728Z,1.18
2023-02-27T00:06:53.273Z,1.18
2023-02-27T00:09:19.835Z,0.59
2023-02-27T00:11:46.375Z,1.20
2023-02-27T00:14:12.829Z,0.86
2023-02-27T00:16:39.316Z,1.12
2023-02-27T00:19:05.952Z,0.99
2023-02-27T00:21:34.710Z,1.17
2023-02-27T00:24:02.588Z,1.11
2023-02-27T00:26:29.186Z,1.02
2023-02-27T00:28:55.721Z,1.14
2023-02-27T00:31:22.259Z,0.80
2023-02-27T00:33:48.743Z,1.04
2023-02-27T00:36:15.303Z,1.03
2023-02-27T00:38:41.862Z,1.10
2023-02-27T00:41:08.475Z,0.83
2023-02-27T00:43:35.632Z,0.90
2023-02-27T00:46:02.128Z,1.04
2023-02-27T00:48:28.793Z,1.00
2023-02-27T00:50:55.393Z,0.86
2023-02-27T00:53:21.986Z,1.05
2023-02-27T00:55:48.594Z,1.02
2023-02-27T00:58:15.089Z,0.42
2023-02-27T01:00:41.773Z,0.99
2023-02-27T01:03:08.245Z,0.96
2023-02-27T01:05:34.770Z,0.96
2023-02-27T01:08:01.206Z,0.63
2023-02-27T01:10:27.667Z,0.95
2023-02-27T01:12:54.140Z,-0.07
2023-02-27T01:15:20.937Z,0.59
2023-02-27T01:17:48.104Z,0.82
2023-02-27T01:20:15.862Z,0.85
2023-02-27T01:22:42.644Z,0.73
2023-02-27T01:25:09.864Z,0.89
2023-02-27T01:27:36.590Z,0.97
2023-02-27T01:30:04.285Z,0.97
2023-02-27T01:32:30.811Z,0.96
2023-02-27T01:34:57.334Z,0.66
2023-02-27T01:37:23.879Z,0.88
2023-02-27T01:39:50.665Z,0.85
2023-02-27T01:42:26.148Z,0.74
2023-02-27T01:45:11.402Z,0.79
2023-02-27T01:47:48.297Z,0.72
2023-02-27T01:50:34.751Z,0.73
2023-02-27T01:53:02.909Z,0.47
2023-02-27T01:55:32.997Z,0.66
2023-02-27T01:58:00.280Z,0.63
2023-02-27T02:00:27.200Z,0.38
2023-02-27T02:03:00.909Z,0.50
2023-02-27T02:05:29.312Z,0.59
2023-02-27T02:07:56.413Z,0.61
2023-02-27T02:10:23.201Z,0.45
2023-02-27T02:12:50.109Z,0.62
2023-02-27T02:15:17.150Z,0.49
2023-02-27T02:18:28.240Z,0.66
2023-02-27T02:21:20.828Z,0.69
2023-02-27T02:24:14.846Z,0.73
2023-02-27T02:26:57.968Z,0.70
2023-02-27T02:30:05.427Z,0.62
2023-02-27T02:32:53.859Z,0.11
2023-02-27T02:35:37.503Z,0.57
2023-02-27T02:38:34.800Z,0.51
2023-02-27T02:41:19.142Z,0.56
2023-02-27T02:43:58.387Z,0.53
2023-02-27T02:46:33.886Z,0.56
2023-02-27T02:49:15.290Z,0.43
2023-02-27T02:51:47.885Z,0.58
2023-02-27T02:54:20.604Z,0.28
2023-02-27T02:56:56.206Z,0.60
2023-02-27T02:59:35.007Z,0.59
2023-02-27T03:02:06.354Z,0.20
2023-02-27T03:04:43.793Z,0.45
2023-02-27T03:07:17.635Z,0.41
2023-02-27T03:09:53.648Z,0.61
2023-02-27T03:12:23.477Z,0.59
2023-02-27T03:15:26.706Z,0.63
2023-02-27T03:18:18.610Z,0.46
2023-02-27T03:21:12.041Z,0.51
2023-02-27T03:23:44.476Z,0.42
2023-02-27T03:26:16.305Z,0.44
2023-02-27T03:28:52.219Z,0.42
2023-02-27T03:31:38.573Z,0.59
2023-02-27T03:34:35.678Z,0.65
2023-02-27T03:37:22.853Z,0.63
2023-02-27T03:40:06.492Z,0.49
2023-02-27T03:42:46.963Z,0.44
2023-02-27T03:45:42.691Z,0.61
2023-02-27T03:48:09.420Z,0.50
2023-02-27T03:50:37.402Z,0.53
2023-02-27T03:53:25.252Z,0.40
2023-02-27T03:55:53.372Z,0.61
2023-02-27T03:58:22.842Z,0.62
2023-02-27T04:00:49.575Z,0.58
2023-02-27T04:03:16.094Z,0.30
2023-02-27T04:05:42.629Z,0.53
2023-02-27T04:08:41.826Z,0.56
2023-02-27T04:11:25.660Z,0.51
2023-02-27T04:14:12.438Z,0.54
2023-02-27T04:17:06.713Z,0.42
2023-02-27T04:19:46.993Z,0.48
2023-02-27T04:22:39.522Z,0.57
2023-02-27T04:25:22.619Z,0.39
2023-02-27T04:27:55.198Z,0.50
2023-02-27T04:30:46.775Z,0.52
2023-02-27T04:33:18.009Z,0.53
2023-02-27T04:35:59.122Z,0.56
2023-02-27T04:38:28.782Z,0.62
2023-02-27T04:41:05.841Z,0.24
2023-02-27T04:43:34.019Z,0.60
2023-02-27T04:46:03.941Z,0.81
2023-02-27T04:48:37.018Z,0.73
2023-02-27T04:51:13.460Z,0.78
2023-02-27T04:53:49.550Z,0.71
2023-02-27T04:56:30.890Z,0.72
2023-02-27T04:59:02.195Z,0.40
2023-02-27T05:01:59.555Z,0.64
2023-02-27T05:04:29.911Z,0.63
2023-02-27T05:06:58.043Z,0.62
2023-02-27T05:09:50.931Z,0.57
2023-02-27T05:12:26.643Z,0.51
2023-02-27T05:14:55.903Z,0.56
2023-02-27T05:17:29.140Z,0.33
2023-02-27T05:19:56.179Z,0.55
2023-02-27T05:22:59.951Z,0.52
2023-02-27T05:25:26.402Z,0.50
2023-02-27T05:28:06.628Z,0.50
2023-02-27T05:30:42.672Z,0.48
2023-02-27T05:33:21.066Z,0.47
2023-02-27T05:36:02.575Z,0.46
2023-02-27T05:38:34.541Z,0.44
2023-02-27T05:41:09.340Z,0.48
2023-02-27T05:43:42.378Z,0.43
2023-02-27T05:46:15.944Z,0.02
2023-02-27T05:48:55.236Z,0.32
2023-02-27T05:51:27.091Z,0.17
2023-02-27T05:54:01.573Z,0.51
2023-02-27T05:56:31.202Z,0.42
2023-02-27T05:59:08.247Z,0.30
2023-02-27T06:01:35.029Z,0.38
2023-02-27T06:04:01.656Z,0.43
2023-02-27T06:06:30.213Z,0.46
2023-02-27T06:08:56.660Z,0.44
2023-02-27T06:11:23.098Z,0.25
2023-02-27T06:13:49.558Z,0.42
2023-02-27T06:16:16.411Z,0.39
2023-02-27T06:18:42.949Z,0.36
2023-02-27T06:21:09.614Z,0.42
2023-02-27T06:23:36.390Z,0.45
2023-02-27T06:26:02.867Z,0.40
2023-02-27T06:28:29.495Z,0.42
2023-02-27T06:30:57.355Z,0.36
2023-02-27T06:33:26.033Z,0.42
2023-02-27T06:35:53.602Z,0.46
2023-02-27T06:38:20.574Z,0.15
2023-02-27T06:40:47.525Z,0.55
2023-02-27T06:43:14.924Z,0.61
2023-02-27T06:45:41.595Z,0.63
2023-02-27T06:48:08.424Z,0.66
2023-02-27T06:50:35.272Z,0.58
2023-02-27T06:53:01.851Z,0.54
2023-02-27T06:55:28.406Z,0.56
2023-02-27T06:57:54.877Z,0.69
2023-02-27T07:00:21.763Z,0.67
2023-02-27T07:02:48.332Z,0.67
2023-02-27T07:05:14.939Z,0.76
2023-02-27T07:07:41.594Z,0.78
2023-02-27T07:10:11.913Z,0.83
2023-02-27T07:12:39.875Z,0.81
2023-02-27T07:15:07.590Z,0.81
2023-02-27T07:17:34.070Z,0.95
2023-02-27T07:20:00.539Z,1.03
2023-02-27T07:22:27.252Z,1.04
2023-02-27T07:24:53.694Z,1.17
2023-02-27T07:27:20.224Z,1.23
2023-02-27T07:29:46.939Z,1.19
2023-02-27T07:32:13.467Z,1.52
2023-02-27T07:34:40.019Z,1.66
2023-02-27T07:37:38.567Z,1.71
2023-02-27T07:40:07.623Z,1.75
2023-02-27T07:42:34.322Z,1.82
2023-02-27T07:45:01.063Z,1.42
2023-02-27T07:47:27.666Z,1.98
2023-02-27T07:49:54.146Z,2.06
2023-02-27T07:52:20.632Z,2.02
2023-02-27T07:54:47.138Z,2.25
2023-02-27T07:57:13.920Z,2.37
2023-02-27T07:59:40.500Z,2.40
2023-02-27T08:02:07.556Z,2.21
2023-02-27T08:04:35.251Z,2.16
2023-02-27T08:07:03.247Z,2.53
2023-02-27T08:09:30.872Z,2.73
2023-02-27T08:11:58.459Z,2.87
2023-02-27T08:14:25.074Z,2.90
2023-02-27T08:16:51.582Z,2.95
2023-02-27T08:19:18.072Z,3.05
2023-02-27T08:21:44.567Z,3.20
2023-02-27T08:24:11.074Z,3.26
2023-02-27T08:26:37.841Z,3.36
2023-02-27T08:29:04.357Z,3.40
2023-02-27T08:31:31.036Z,3.27
2023-02-27T08:34:07.944Z,3.46
2023-02-27T08:36:36.582Z,3.62
2023-02-27T08:39:03.322Z,3.34
2023-02-27T08:41:29.832Z,3.82
2023-02-27T08:43:56.520Z,4.00
2023-02-27T08:46:23.140Z,3.76
2023-02-27T08:48:49.958Z,4.17
2023-02-27T08:51:16.553Z,4.29
2023-02-27T08:53:43.079Z,4.04
2023-02-27T08:56:09.869Z,4.63
2023-02-27T08:58:36.489Z,4.94
2023-02-27T09:01:03.403Z,5.22
2023-02-27T09:03:30.143Z,5.26
2023-02-27T09:05:57.129Z,5.56
2023-02-27T09:08:23.736Z,5.91
2023-02-27T09:10:50.477Z,5.97
2023-02-27T09:13:17.204Z,6.72
2023-02-27T09:15:43.722Z,7.58
2023-02-27T09:18:10.255Z,7.94
2023-02-27T09:20:36.821Z,7.67
2023-02-27T09:23:04.112Z,7.18
2023-02-27T09:25:31.817Z,7.18
2023-02-27T09:27:58.459Z,6.91
2023-02-27T09:30:25.458Z,6.76
2023-02-27T09:32:52.054Z,6.64
2023-02-27T09:35:20.575Z,6.56
2023-02-27T09:37:48.348Z,6.04
2023-02-27T09:40:23.992Z,6.67
2023-02-27T09:42:53.685Z,6.66
2023-02-27T09:45:27.238Z,6.89
2023-02-27T09:48:05.753Z,7.24
2023-02-27T09:50:47.728Z,7.91
2023-02-27T09:53:23.635Z,10.06
2023-02-27T09:55:50.496Z,12.77
2023-02-27T09:58:34.741Z,15.77
2023-02-27T10:01:09.285Z,18.54
2023-02-27T10:03:56.811Z,18.91
2023-02-27T10:06:31.899Z,19.28
2023-02-27T10:09:19.598Z,19.22
2023-02-27T10:12:22.764Z,17.57
2023-02-27T10:14:56.715Z,19.05
2023-02-27T10:17:36.259Z,17.99
2023-02-27T10:20:09.888Z,18.20
2023-02-27T10:22:43.345Z,19.48
2023-02-27T10:25:30.373Z,19.43
2023-02-27T10:28:06.201Z,19.26
2023-02-27T10:30:34.991Z,18.47
2023-02-27T10:33:16.724Z,17.51
2023-02-27T10:35:44.885Z,16.20
2023-02-27T10:38:41.589Z,14.92
2023-02-27T10:41:14.606Z,14.92
2023-02-27T10:43:42.429Z,14.10
2023-02-27T10:46:19.579Z,14.84
2023-02-27T10:48:46.409Z,16.08
2023-02-27T10:51:31.538Z,16.07
2023-02-27T10:54:37.186Z,15.97
2023-02-27T10:57:18.238Z,14.96
2023-02-27T10:59:53.082Z,15.00
2023-02-27T11:02:26.864Z,14.47
2023-02-27T11:04:55.730Z,14.48
2023-02-27T11:07:33.588Z,14.79
2023-02-27T11:10:28.067Z,15.15
2023-02-27T11:13:18.980Z,15.35
2023-02-27T11:16:03.198Z,15.93
2023-02-27T11:18:30.793Z,16.03
2023-02-27T11:21:27.431Z,16.72
2023-02-27T11:23:59.069Z,17.02
2023-02-27T11:26:33.219Z,16.82
2023-02-27T11:29:15.210Z,15.61
2023-02-27T11:31:46.245Z,14.48
2023-02-27T11:34:25.180Z,15.05
2023-02-27T11:36:55.839Z,14.60
2023-02-27T11:39:27.183Z,14.11
2023-02-27T11:41:56.959Z,13.87
2023-02-27T11:44:49.830Z,14.34
2023-02-27T11:47:23.770Z,13.70
2023-02-27T11:49:56.407Z,13.45
2023-02-27T11:52:35.239Z,13.70
2023-02-27T11:55:05.654Z,13.50
2023-02-27T11:57:38.712Z,13.53
2023-02-27T12:03:17.516Z,15.28
2023-02-27T12:05:49.250Z,15.73
2023-02-27T12:08:42.820Z,15.88
2023-02-27T12:11:37.250Z,15.15
2023-02-27T12:14:16.407Z,15.63
2023-02-27T12:16:48.354Z,16.14
2023-02-27T12:19:25.173Z,16.51
2023-02-27T12:22:03.020Z,15.76
2023-02-27T12:24:39.214Z,16.50
2023-02-27T12:27:52.479Z,17.28
2023-02-27T12:30:24.337Z,18.63
2023-02-27T12:33:18.002Z,19.63
2023-02-27T12:35:51.987Z,20.93
2023-02-27T12:38:19.845Z,20.40
2023-02-27T12:41:10.490Z,20.03
2023-02-27T12:43:43.106Z,19.52
2023-02-27T12:46:31.117Z,18.51
2023-02-27T12:49:06.937Z,17.12
2023-02-27T12:51:45.993Z,17.61
2023-02-27T12:54:31.443Z,18.23
2023-02-27T12:57:05.677Z,18.49
2023-02-27T12:59:43.429Z,18.78
2023-02-27T13:02:28.561Z,18.05
2023-02-27T13:05:09.538Z,17.89
2023-02-27T13:08:04.328Z,17.93
2023-02-27T13:10:39.707Z,18.46
2023-02-27T13:13:45.852Z,19.61
2023-02-27T13:16:17.595Z,19.32
2023-02-27T13:18:49.656Z,18.92
2023-02-27T13:21:28.890Z,18.65
2023-02-27T13:24:16.342Z,18.69
2023-02-27T13:26:49.516Z,17.30
2023-02-27T13:29:18.453Z,17.40
2023-02-27T13:31:57.251Z,16.43
2023-02-27T13:34:35.857Z,16.81
2023-02-27T13:37:05.166Z,17.18
2023-02-27T13:39:45.121Z,17.18
2023-02-27T13:42:27.466Z,15.52
2023-02-27T13:44:58.785Z,14.80
2023-02-27T13:47:31.311Z,14.14
2023-02-27T13:50:01.670Z,13.91
2023-02-27T13:52:31.194Z,13.24
2023-02-27T13:55:06.225Z,12.69
2023-02-27T13:57:38.001Z,12.62
2023-02-27T14:00:09.156Z,12.52
2023-02-27T14:02:57.800Z,12.29
2023-02-27T14:05:42.993Z,11.84
2023-02-27T14:08:16.461Z,12.51
2023-02-27T14:11:01.201Z,13.06
2023-02-27T14:13:46.510Z,13.70
2023-02-27T14:16:41.906Z,14.66
2023-02-27T14:19:22.758Z,14.91
2023-02-27T14:21:49.780Z,15.17
2023-02-27T14:24:18.575Z,14.39
2023-02-27T14:26:47.006Z,13.94
2023-02-27T14:29:24.406Z,13.52
2023-02-27T14:31:54.089Z,12.88
2023-02-27T14:34:22.210Z,13.27
2023-02-27T14:36:52.850Z,13.11
2023-02-27T14:39:28.663Z,13.15
2023-02-27T14:42:14.093Z,12.75
2023-02-27T14:44:43.791Z,12.33
2023-02-27T14:47:17.978Z,11.97
2023-02-27T14:49:47.355Z,11.97
2023-02-27T14:52:20.314Z,11.99
2023-02-27T14:54:50.820Z,11.29
2023-02-27T14:57:24.214Z,11.35
2023-02-27T14:59:53.005Z,11.33
2023-02-27T15:02:24.784Z,11.39
2023-02-27T15:04:56.215Z,11.43
2023-02-27T15:07:28.672Z,11.31
2023-02-27T15:10:00.431Z,10.48
2023-02-27T15:12:31.152Z,10.56
2023-02-27T15:15:01.460Z,9.51
2023-02-27T15:17:37.242Z,10.57
2023-02-27T15:20:21.245Z,9.79
2023-02-27T15:22:47.734Z,10.23
2023-02-27T15:25:33.364Z,10.09
2023-02-27T15:28:06.794Z,9.72
2023-02-27T15:30:33.925Z,10.13
2023-02-27T15:33:02.074Z,10.10
2023-02-27T15:35:35.936Z,9.90
2023-02-27T15:38:02.811Z,9.95
2023-02-27T15:40:31.933Z,9.64
2023-02-27T15:43:00.098Z,9.28
2023-02-27T15:45:31.622Z,9.65
2023-02-27T15:47:58.181Z,9.74
2023-02-27T15:50:33.200Z,9.75
2023-02-27T17:34:17.105Z,6.86
2023-02-27T17:36:43.603Z,6.98
2023-02-27T17:39:12.769Z,6.96
2023-02-27T17:41:40.940Z,6.99
2023-02-27T17:44:11.766Z,6.90
2023-02-27T17:46:39.093Z,6.96
2023-02-27T17:49:05.719Z,7.01
2023-02-27T17:51:33.179Z,7.15
2023-02-27T17:54:04.912Z,7.03
2023-02-27T17:56:31.734Z,6.68
2023-02-27T17:58:58.758Z,6.90
2023-02-27T18:01:26.595Z,7.14
2023-02-27T18:03:54.951Z,6.62
2023-02-27T18:06:23.034Z,7.00
2023-02-27T18:08:49.904Z,6.50
2023-02-27T18:11:19.118Z,6.97
2023-02-27T18:13:47.557Z,6.48
2023-02-27T18:16:15.029Z,6.68
2023-02-27T18:18:42.641Z,6.92
2023-02-27T18:21:13.142Z,6.98
2023-02-27T18:23:40.835Z,6.62
2023-02-27T18:26:12.479Z,7.05
2023-02-27T18:28:43.789Z,6.68
2023-02-27T18:31:28.408Z,6.80
2023-02-27T18:33:54.996Z,6.70
2023-02-27T18:36:21.712Z,6.90
2023-02-27T18:38:48.295Z,6.72
2023-02-27T18:41:15.093Z,6.56
2023-02-27T18:43:43.427Z,6.94
2023-02-27T18:46:12.281Z,6.42
2023-02-27T18:48:39.992Z,6.90
2023-02-27T18:51:12.333Z,7.01
2023-02-27T18:53:44.304Z,6.96
2023-02-27T18:56:11.970Z,6.72
2023-02-27T18:58:38.804Z,6.58
2023-02-27T19:01:07.322Z,6.65
2023-02-27T19:03:35.948Z,6.68
2023-02-27T19:06:02.746Z,6.79
2023-02-27T19:08:29.391Z,6.71
2023-02-27T19:10:59.156Z,6.79
2023-02-27T19:13:26.646Z,6.90
2023-02-27T19:15:54.013Z,6.91
2023-02-27T19:18:20.523Z,6.93
2023-02-27T19:20:47.088Z,6.87
2023-02-27T19:23:13.570Z,6.99
2023-02-27T19:25:42.024Z,6.97
2023-02-27T19:28:11.331Z,6.78
2023-02-27T19:30:41.171Z,6.90
2023-02-27T19:33:07.664Z,6.43
2023-02-27T19:35:34.284Z,6.88
2023-02-27T19:38:01.141Z,6.66
2023-02-27T19:40:28.335Z,6.68
2023-02-27T19:42:55.008Z,6.80
2023-02-27T19:45:21.601Z,6.76
2023-02-27T19:47:48.228Z,6.57
2023-02-27T19:50:15.012Z,6.60
2023-02-27T19:52:41.725Z,6.66
2023-02-27T19:55:08.550Z,6.38
2023-02-27T19:57:37.027Z,6.67
2023-02-27T20:00:06.436Z,6.37
2023-02-27T20:02:33.230Z,6.22
2023-02-27T20:05:00.059Z,6.67
2023-02-27T20:07:29.056Z,6.36
2023-02-27T20:09:56.898Z,6.67
2023-02-27T20:12:24.000Z,6.47
2023-02-27T20:14:50.492Z,6.80
2023-02-27T20:17:17.297Z,6.71
2023-02-27T20:19:43.811Z,6.44
2023-02-27T20:22:10.991Z,6.29
2023-02-27T20:24:37.492Z,6.10
2023-02-27T20:27:04.316Z,6.69
2023-02-27T20:29:30.823Z,6.63
2023-02-27T20:31:57.574Z,6.18
2023-02-27T20:34:26.485Z,6.68
2023-02-27T20:36:54.988Z,6.63
2023-02-27T20:39:21.969Z,6.61
2023-02-27T20:41:48.935Z,6.62
2023-02-27T20:44:15.890Z,6.66
2023-02-27T20:46:43.785Z,6.37
2023-02-27T20:49:12.710Z,6.49
2023-02-27T20:51:39.929Z,6.27
2023-02-27T20:54:09.094Z,6.68
2023-02-27T20:56:38.414Z,6.72
2023-02-27T20:59:07.403Z,6.75
2023-02-27T21:01:35.038Z,6.70
2023-02-27T21:04:02.741Z,6.68
2023-02-27T21:06:30.530Z,6.49
2023-02-27T21:08:57.347Z,6.58
2023-02-27T21:11:29.645Z,6.30
2023-02-27T21:14:03.466Z,6.20
2023-02-27T21:16:31.599Z,6.35
2023-02-27T21:18:58.380Z,6.10
2023-02-27T21:21:28.410Z,6.46
2023-02-27T21:23:55.430Z,6.52
2023-02-27T21:26:39.125Z,6.49
2023-02-27T21:29:09.394Z,5.42
2023-02-27T21:31:38.392Z,6.43
2023-02-27T21:34:11.316Z,6.04
2023-02-27T21:36:42.896Z,6.43
2023-02-27T21:39:14.111Z,6.34
2023-02-27T21:41:41.307Z,6.37
2023-02-27T21:44:09.711Z,6.16
2023-02-27T21:46:36.198Z,5.94
2023-02-27T21:49:03.928Z,6.40
2023-02-27T21:51:39.897Z,6.43
2023-02-27T21:54:07.356Z,6.48
2023-02-27T21:56:33.877Z,6.38
2023-02-27T21:59:01.944Z,6.15
2023-02-27T22:01:29.456Z,5.97
2023-02-27T22:03:57.310Z,5.99
2023-02-27T22:06:26.832Z,6.42
2023-02-27T22:08:57.765Z,6.09
2023-02-27T22:11:26.140Z,6.55
2023-02-27T22:13:53.089Z,6.17
2023-02-27T22:16:20.832Z,6.46
2023-02-27T22:18:48.105Z,6.54
2023-02-27T22:21:20.503Z,6.50
2023-02-27T22:23:47.640Z,6.38
2023-02-27T22:26:18.018Z,6.55
2023-02-27T22:28:44.672Z,6.45
2023-02-27T22:31:12.654Z,6.14
2023-02-27T22:33:41.065Z,6.39
2023-02-27T22:36:09.328Z,6.38
2023-02-27T22:38:36.051Z,6.28
2023-02-27T22:41:14.253Z,6.44
2023-02-27T22:43:41.090Z,6.46
2023-02-27T22:46:12.350Z,6.27
2023-02-27T22:48:39.030Z,6.11
2023-02-27T22:51:12.893Z,6.47
2023-02-27T22:53:40.473Z,6.41
2023-02-27T22:56:12.380Z,6.45
2023-02-27T22:58:39.960Z,6.47
2023-02-27T23:01:11.356Z,5.83
2023-02-27T23:03:38.928Z,6.31
2023-02-27T23:06:07.469Z,6.36
2023-02-27T23:08:34.747Z,6.06
2023-02-27T23:11:01.546Z,6.29
2023-02-27T23:13:28.903Z,6.21
2023-02-27T23:15:55.374Z,6.01
2023-02-27T23:18:21.916Z,5.93
2023-02-27T23:20:48.459Z,5.99
2023-02-27T23:23:15.105Z,6.13
2023-02-27T23:25:41.669Z,5.76
2023-02-27T23:28:08.346Z,6.01
2023-02-27T23:30:35.060Z,6.08
2023-02-27T23:33:01.664Z,5.69
2023-02-27T23:35:28.434Z,5.99
2023-02-27T23:37:57.668Z,5.82
2023-02-27T23:40:27.169Z,6.08
2023-02-27T23:43:13.026Z,6.12
2023-02-27T23:45:39.882Z,6.08
2023-02-27T23:48:06.754Z,6.01
2023-02-27T23:50:37.274Z,5.81
2023-02-27T23:53:05.300Z,5.84
2023-02-27T23:55:34.272Z,5.69
2023-02-27T23:58:02.657Z,5.57
